Time;durP1;ratioP1;P1;durP2;ratioP2;P2;SDS_P1;SDS_P2;PMS_P1;PMS_P2;Temp;Humidity;BMP_temperature;BMP_pressure;BME280_temperature;BME280_humidity;BME280_pressure;Samples;Min_cycle;Max_cycle;Signal;HPM_P1;HPM_P2
2022/05/11 00:00:55;;;;;;;10.73;5.43;;;14.80;99.90;;;;;;5068261;28;20040;-73
2022/05/11 00:03:21;;;;;;;15.10;6.32;;;14.80;99.90;;;;;;5049770;28;20421;-73
2022/05/11 00:05:47;;;;;;;13.82;6.65;;;14.80;99.90;;;;;;5086347;28;20050;-74
2022/05/11 00:08:13;;;;;;;13.82;5.75;;;14.70;99.90;;;;;;5064163;28;20485;-73
2022/05/11 00:10:39;;;;;;;11.85;6.10;;;14.70;99.90;;;;;;5066424;28;20384;-73
2022/05/11 00:13:05;;;;;;;11.00;6.25;;;14.70;99.90;;;;;;5049101;28;20055;-73
2022/05/11 00:15:31;;;;;;;16.05;6.35;;;14.70;99.90;;;;;;5050793;28;20113;-72
2022/05/11 00:17:57;;;;;;;9.32;5.95;;;14.70;99.90;;;;;;5055481;28;20052;-73
2022/05/11 00:20:26;;;;;;;17.38;6.40;;;14.70;99.90;;;;;;5070363;28;20044;-73
2022/05/11 00:22:54;;;;;;;13.15;6.88;;;14.70;99.90;;;;;;5046875;28;20045;-73
2022/05/11 00:25:20;;;;;;;10.73;5.75;;;14.70;99.90;;;;;;5049941;28;20049;-73
2022/05/11 00:27:46;;;;;;;9.43;5.57;;;14.60;99.90;;;;;;5050870;28;20451;-73
2022/05/11 00:30:11;;;;;;;15.68;7.05;;;14.60;99.90;;;;;;5045267;28;20121;-73
2022/05/11 00:32:37;;;;;;;14.65;7.75;;;14.60;99.90;;;;;;5063674;28;20040;-73
2022/05/11 00:35:04;;;;;;;14.35;6.90;;;14.60;99.90;;;;;;5077029;28;20048;-73
2022/05/11 00:37:30;;;;;;;12.85;7.07;;;14.60;99.90;;;;;;5066284;28;20048;-73
2022/05/11 00:39:58;;;;;;;15.30;6.70;;;14.60;99.90;;;;;;5061853;28;20097;-73
2022/05/11 00:42:24;;;;;;;13.90;6.57;;;14.60;99.90;;;;;;5061525;28;20037;-74
2022/05/11 00:44:49;;;;;;;12.43;6.85;;;14.60;99.90;;;;;;5067351;28;20052;-73
2022/05/11 00:47:24;;;;;;;17.85;7.05;;;14.60;99.90;;;;;;5053596;28;20039;-73
2022/05/11 00:49:52;;;;;;;12.10;6.70;;;14.60;99.90;;;;;;5050028;28;20052;-73
2022/05/11 00:52:27;;;;;;;13.55;7.03;;;14.60;99.90;;;;;;5078448;28;20036;-72
2022/05/11 00:54:56;;;;;;;15.05;7.03;;;14.60;99.90;;;;;;5055930;28;20097;-73
2022/05/11 00:57:29;;;;;;;13.27;7.38;;;14.60;99.90;;;;;;5067015;28;20053;-73
2022/05/11 00:59:54;;;;;;;11.95;6.60;;;14.60;99.90;;;;;;5073889;28;20500;-73
2022/05/11 01:02:22;;;;;;;13.60;6.50;;;14.60;99.90;;;;;;5045701;28;20058;-73
2022/05/11 01:04:50;;;;;;;18.80;6.53;;;14.70;99.90;;;;;;5071601;28;20082;-73
2022/05/11 01:07:15;;;;;;;12.88;6.85;;;14.70;99.90;;;;;;5051747;28;20431;-72
2022/05/11 01:09:41;;;;;;;9.60;6.10;;;14.70;99.90;;;;;;5067362;28;20048;-73
2022/05/11 01:12:13;;;;;;;13.98;7.18;;;14.70;99.90;;;;;;5056259;28;20139;-75
2022/05/11 01:14:43;;;;;;;11.40;6.32;;;14.70;99.90;;;;;;5045951;28;20476;-74
2022/05/11 01:17:10;;;;;;;12.80;6.95;;;14.70;99.90;;;;;;5061672;28;20146;-74
2022/05/11 01:19:40;;;;;;;12.93;6.63;;;14.60;99.90;;;;;;5066119;28;20050;-73
2022/05/11 01:22:33;;;;;;;13.37;6.30;;;14.70;99.90;;;;;;5044812;28;20083;-73
2022/05/11 01:24:59;;;;;;;9.38;5.93;;;14.70;99.90;;;;;;5015010;28;20143;-74
2022/05/11 01:27:43;;;;;;;10.77;5.90;;;14.70;99.90;;;;;;5055643;28;20052;-73
2022/05/11 01:30:13;;;;;;;14.85;6.40;;;14.70;99.90;;;;;;5058415;28;20439;-74
2022/05/11 01:32:41;;;;;;;14.38;6.40;;;14.70;99.90;;;;;;5065570;28;20123;-74
2022/05/11 01:35:22;;;;;;;12.55;6.40;;;14.70;99.90;;;;;;5066995;28;20036;-74
2022/05/11 01:38:06;;;;;;;;;;;14.70;99.90;;;;;;5059862;28;20049;-73
2022/05/11 01:40:32;;;;;;;11.20;6.13;;;14.70;99.90;;;;;;5044281;28;19920;-73
2022/05/11 01:42:58;;;;;;;10.48;6.43;;;14.70;99.90;;;;;;5034134;28;20043;-73
2022/05/11 01:45:23;;;;;;;15.30;7.32;;;14.70;99.90;;;;;;5059613;28;20061;-74
2022/05/11 01:47:49;;;;;;;10.93;7.10;;;14.70;99.90;;;;;;5054980;28;20040;-74
2022/05/11 01:50:14;;;;;;;9.55;6.00;;;14.70;99.90;;;;;;5073016;28;20089;-73
2022/05/11 01:52:40;;;;;;;12.20;6.75;;;14.60;99.90;;;;;;5048588;28;20114;-73
2022/05/11 01:55:06;;;;;;;8.43;6.13;;;14.70;99.90;;;;;;5065607;28;20052;-74
2022/05/11 01:57:32;;;;;;;12.32;6.43;;;14.60;99.90;;;;;;5066406;28;20045;-73
2022/05/11 01:59:57;;;;;;;11.65;5.95;;;14.60;99.90;;;;;;5066794;28;20059;-73
2022/05/11 02:02:23;;;;;;;10.02;5.82;;;14.70;99.90;;;;;;5065142;28;20047;-73
2022/05/11 02:07:51;;;;;;;11.00;6.95;;;14.90;99.90;;;;;;5064177;28;20405;-74
2022/05/11 02:10:22;;;;;;;11.25;5.68;;;14.60;99.90;;;;;;5047319;28;20037;-74
2022/05/11 02:12:49;;;;;;;11.82;5.82;;;14.70;99.90;;;;;;5063392;28;20044;-73
2022/05/11 02:15:16;;;;;;;8.45;5.47;;;14.60;99.90;;;;;;5048325;28;20044;-73
2022/05/11 02:17:43;;;;;;;12.73;6.10;;;14.60;99.90;;;;;;5064246;28;20045;-74
2022/05/11 02:20:10;;;;;;;12.27;6.25;;;14.70;99.90;;;;;;5075885;28;20085;-74
2022/05/11 02:22:36;;;;;;;11.38;6.28;;;14.70;99.90;;;;;;5045415;28;20063;-73
2022/05/11 02:25:03;;;;;;;13.20;6.35;;;14.60;99.90;;;;;;5070419;28;20036;-73
2022/05/11 02:27:31;;;;;;;16.23;6.55;;;14.60;99.90;;;;;;5065883;28;20400;-74
2022/05/11 02:29:57;;;;;;;13.13;6.03;;;14.60;99.90;;;;;;5072900;28;20386;-74
2022/05/11 02:32:23;;;;;;;12.40;6.03;;;14.60;99.90;;;;;;5049340;28;20045;-74
2022/05/11 02:37:33;;;;;;;9.25;5.47;;;14.50;99.90;;;;;;5063564;28;20045;-73
2022/05/11 02:39:59;;;;;;;12.13;5.45;;;14.50;99.90;;;;;;5067918;28;20101;-74
2022/05/11 02:42:25;;;;;;;13.38;6.45;;;14.50;99.90;;;;;;5044224;28;20491;-74
2022/05/11 02:44:50;;;;;;;9.70;5.70;;;14.50;99.90;;;;;;5050138;28;20120;-74
2022/05/11 02:47:16;;;;;;;9.60;6.18;;;14.50;99.90;;;;;;5061980;28;20044;-74
2022/05/11 02:49:41;;;;;;;9.32;6.53;;;14.50;99.90;;;;;;5051226;28;20120;-74
2022/05/11 02:52:07;;;;;;;17.08;7.18;;;14.50;99.90;;;;;;5070087;28;20036;-73
2022/05/11 02:54:33;;;;;;;11.60;5.88;;;14.50;99.90;;;;;;5070675;28;20036;-74
2022/05/11 02:56:58;;;;;;;9.52;5.68;;;14.50;99.90;;;;;;5067626;28;20037;-74
2022/05/11 02:59:24;;;;;;;14.45;7.20;;;14.50;99.90;;;;;;5076730;28;20193;-74
2022/05/11 03:01:51;;;;;;;9.82;5.85;;;14.50;99.90;;;;;;5064542;28;20592;-74
2022/05/11 03:04:18;;;;;;;11.77;6.50;;;14.50;99.90;;;;;;5046935;28;20073;-74
2022/05/11 03:06:47;;;;;;;9.43;6.10;;;14.50;99.90;;;;;;5065917;28;20041;-74
2022/05/11 03:09:14;;;;;;;11.30;6.05;;;14.50;99.90;;;;;;5069323;28;20064;-73
2022/05/11 03:11:41;;;;;;;9.65;5.53;;;14.50;99.90;;;;;;5069373;28;20040;-73
2022/05/11 03:14:09;;;;;;;10.52;5.80;;;14.50;99.90;;;;;;5059336;28;20044;-74
2022/05/11 03:16:38;;;;;;;11.98;5.82;;;14.50;99.90;;;;;;5074063;28;20593;-73
2022/05/11 03:19:05;;;;;;;10.80;5.97;;;14.50;99.90;;;;;;5068995;28;20403;-72
2022/05/11 03:21:31;;;;;;;9.73;5.72;;;14.50;99.90;;;;;;5066687;28;20102;-72
2022/05/11 03:23:57;;;;;;;12.80;5.25;;;14.50;99.90;;;;;;5067053;28;20169;-73
2022/05/11 03:26:23;;;;;;;11.30;5.03;;;14.50;99.90;;;;;;5069985;28;20063;-73
2022/05/11 03:28:49;;;;;;;12.73;5.55;;;14.50;99.90;;;;;;5053884;28;20040;-73
2022/05/11 03:31:16;;;;;;;12.68;5.57;;;14.40;99.90;;;;;;5064754;28;20036;-73
2022/05/11 03:36:26;;;;;;;10.93;4.85;;;14.50;99.90;;;;;;5066516;28;20037;-73
2022/05/11 03:38:51;;;;;;;9.98;5.55;;;14.40;99.90;;;;;;5064042;28;20043;-73
2022/05/11 03:41:18;;;;;;;12.75;5.65;;;14.40;99.90;;;;;;5072397;28;20036;-73
2022/05/11 03:43:44;;;;;;;9.60;4.90;;;14.40;99.90;;;;;;5073855;28;20044;-73
2022/05/11 03:46:10;;;;;;;14.32;5.00;;;14.40;99.90;;;;;;5045750;28;20114;-74
2022/05/11 03:48:37;;;;;;;12.73;5.55;;;14.40;99.90;;;;;;5045253;28;20082;-73
2022/05/11 03:51:03;;;;;;;8.90;4.88;;;14.40;99.90;;;;;;5055049;28;20580;-73
2022/05/11 03:53:29;;;;;;;14.40;5.22;;;14.30;99.90;;;;;;5045003;28;20048;-73
2022/05/11 03:55:55;;;;;;;8.48;5.00;;;14.30;99.90;;;;;;5052267;28;20036;-73
2022/05/11 03:58:20;;;;;;;10.52;6.55;;;14.40;99.90;;;;;;5050898;28;20126;-74
2022/05/11 04:00:46;;;;;;;12.32;5.07;;;14.30;99.90;;;;;;5052056;28;20073;-73
2022/05/11 04:03:12;;;;;;;15.85;5.38;;;14.30;99.90;;;;;;5053043;28;20095;-73
2022/05/11 04:05:38;;;;;;;11.77;4.82;;;14.30;99.90;;;;;;5055960;28;20123;-73
2022/05/11 04:08:04;;;;;;;12.10;5.10;;;14.30;99.90;;;;;;5051515;28;20044;-73
2022/05/11 04:10:29;;;;;;;15.85;5.35;;;14.30;99.90;;;;;;5049689;28;20088;-73
2022/05/11 04:12:55;;;;;;;10.80;5.13;;;14.30;99.90;;;;;;5049033;28;20044;-73
2022/05/11 04:15:21;;;;;;;8.95;4.50;;;14.30;99.90;;;;;;5051682;28;20101;-73
2022/05/11 04:17:46;;;;;;;7.65;4.43;;;14.30;99.90;;;;;;5063807;28;20040;-73
2022/05/11 04:20:15;;;;;;;10.63;4.72;;;14.40;99.90;;;;;;5069081;28;20374;-73
2022/05/11 04:22:41;;;;;;;9.75;4.68;;;14.30;99.90;;;;;;5052033;28;20067;-73
2022/05/11 04:25:07;;;;;;;10.70;5.22;;;14.40;99.90;;;;;;5062824;28;20040;-73
2022/05/11 04:27:34;;;;;;;12.25;5.07;;;14.30;99.90;;;;;;5067915;28;20068;-74
2022/05/11 04:30:01;;;;;;;11.73;5.30;;;14.40;99.90;;;;;;5044855;28;20044;-73
2022/05/11 04:32:27;;;;;;;10.80;5.13;;;14.40;99.90;;;;;;5064627;28;20395;-73
2022/05/11 04:34:52;;;;;;;11.00;4.95;;;14.30;99.90;;;;;;5048170;28;20050;-73
2022/05/11 04:37:18;;;;;;;14.18;5.57;;;14.40;99.90;;;;;;5048171;28;20130;-73
2022/05/11 04:39:46;;;;;;;11.82;5.93;;;14.40;99.90;;;;;;5065634;28;21588;-73
2022/05/11 04:42:12;;;;;;;10.75;5.18;;;14.40;99.90;;;;;;5065768;28;20036;-73
2022/05/11 04:44:39;;;;;;;13.90;5.35;;;14.40;99.90;;;;;;5047369;28;20041;-73
2022/05/11 04:47:07;;;;;;;12.00;4.78;;;14.40;99.90;;;;;;5049635;28;20090;-73
2022/05/11 04:49:33;;;;;;;10.30;5.13;;;14.40;99.90;;;;;;5069397;28;20052;-73
2022/05/11 04:52:02;;;;;;;9.48;4.38;;;14.50;99.90;;;;;;5073296;28;20040;-73
2022/05/11 04:54:28;;;;;;;12.57;4.97;;;14.50;99.90;;;;;;5047585;28;20045;-72
2022/05/11 04:56:54;;;;;;;10.23;4.95;;;14.50;99.90;;;;;;5049533;28;20372;-72
2022/05/11 04:59:21;;;;;;;15.10;5.18;;;14.50;99.90;;;;;;5067323;28;20043;-72
2022/05/11 05:01:47;;;;;;;11.70;4.55;;;14.50;99.90;;;;;;5064962;28;20606;-73
2022/05/11 05:04:12;;;;;;;11.02;4.72;;;14.50;99.90;;;;;;5043153;28;20143;-72
2022/05/11 05:06:38;;;;;;;10.35;4.80;;;14.50;99.90;;;;;;5062378;28;20170;-72
2022/05/11 05:09:05;;;;;;;14.00;5.05;;;14.50;99.90;;;;;;5050327;28;20059;-73
2022/05/11 05:11:32;;;;;;;9.27;5.25;;;14.50;99.90;;;;;;5041968;28;20040;-72
2022/05/11 05:13:59;;;;;;;10.57;4.70;;;14.60;99.90;;;;;;5064236;28;20131;-74
2022/05/11 05:16:24;;;;;;;13.70;4.50;;;14.60;99.90;;;;;;5054293;28;20413;-74
2022/05/11 05:18:50;;;;;;;12.35;4.40;;;14.60;99.90;;;;;;5047748;28;20101;-74
2022/05/11 05:21:16;;;;;;;11.05;4.18;;;14.60;99.90;;;;;;5055601;28;20069;-74
2022/05/11 05:23:42;;;;;;;10.85;4.43;;;14.60;99.90;;;;;;5072426;28;20072;-74
2022/05/11 05:26:08;;;;;;;9.23;4.18;;;14.60;99.90;;;;;;5053632;28;20070;-74
2022/05/11 05:31:21;;;;;;;11.52;4.72;;;14.70;99.90;;;;;;5068517;28;20037;-75
2022/05/11 05:33:48;;;;;;;10.02;4.32;;;14.70;99.90;;;;;;5064982;28;21117;-74
2022/05/11 05:36:14;;;;;;;10.45;3.85;;;14.70;99.90;;;;;;5068567;28;20061;-74
2022/05/11 05:38:41;;;;;;;16.42;4.40;;;14.70;99.90;;;;;;5063547;28;20044;-74
2022/05/11 05:41:10;;;;;;;12.55;4.88;;;14.70;99.90;;;;;;5066514;28;20532;-74
2022/05/11 05:43:37;;;;;;;5.95;3.63;;;14.70;99.90;;;;;;5064032;28;20044;-74
2022/05/11 05:46:03;;;;;;;14.40;4.35;;;14.80;99.90;;;;;;5045672;28;20075;-75
2022/05/11 05:48:29;;;;;;;14.15;4.60;;;14.80;99.90;;;;;;5063954;28;20403;-74
2022/05/11 05:51:05;;;;;;;11.25;4.57;;;14.80;99.90;;;;;;5045467;28;20040;-74
2022/05/11 05:53:31;;;;;;;10.90;4.30;;;14.80;99.90;;;;;;5066109;28;20451;-74
2022/05/11 05:55:57;;;;;;;13.60;4.82;;;14.80;99.90;;;;;;5071888;28;20040;-74
2022/05/11 05:58:22;;;;;;;12.30;4.80;;;14.80;99.90;;;;;;5067222;28;20118;-73
2022/05/11 06:00:48;;;;;;;16.45;5.72;;;14.80;99.90;;;;;;5051670;28;20032;-74
2022/05/11 06:03:22;;;;;;;12.60;4.28;;;14.90;99.90;;;;;;5078554;28;20056;-74
2022/05/11 06:05:48;;;;;;;15.93;4.72;;;14.90;99.90;;;;;;5066237;28;20044;-74
2022/05/11 06:08:17;;;;;;;10.32;4.43;;;14.90;99.90;;;;;;5066889;28;20056;-74
2022/05/11 06:10:47;;;;;;;10.52;3.88;;;15.00;99.90;;;;;;5046088;28;20476;-74
2022/05/11 06:13:16;;;;;;;10.25;3.95;;;14.90;99.90;;;;;;5054376;28;20044;-74
2022/05/11 06:15:42;;;;;;;15.90;4.85;;;15.00;99.90;;;;;;5069288;28;20036;-74
2022/05/11 06:18:09;;;;;;;11.80;4.28;;;15.00;99.90;;;;;;5065506;28;20310;-74
2022/05/11 06:20:36;;;;;;;11.68;4.03;;;15.00;99.90;;;;;;5066251;28;20060;-74
2022/05/11 06:23:03;;;;;;;13.65;4.50;;;15.10;99.90;;;;;;5063155;28;20511;-74
2022/05/11 06:25:30;;;;;;;10.77;5.10;;;15.10;99.90;;;;;;5038417;28;20064;-74
2022/05/11 06:27:58;;;;;;;17.02;4.68;;;15.10;99.90;;;;;;5054947;28;20040;-74
2022/05/11 06:30:24;;;;;;;15.80;4.72;;;15.20;99.90;;;;;;5069810;28;20115;-75
2022/05/11 06:32:50;;;;;;;13.45;4.70;;;15.20;99.90;;;;;;5067840;28;20075;-74
2022/05/11 06:35:16;;;;;;;14.73;4.40;;;15.20;99.90;;;;;;5064123;28;20064;-73
2022/05/11 06:37:44;;;;;;;15.05;4.82;;;15.30;99.90;;;;;;5066530;28;20068;-73
2022/05/11 06:40:11;;;;;;;20.30;5.30;;;15.30;99.90;;;;;;5047338;28;20442;-74
2022/05/11 06:42:37;;;;;;;14.90;4.80;;;15.40;99.90;;;;;;5047044;28;20139;-74
2022/05/11 06:45:05;;;;;;;13.57;5.25;;;15.40;99.90;;;;;;5065682;28;20108;-74
2022/05/11 06:47:31;;;;;;;14.52;5.68;;;15.50;99.90;;;;;;5070960;28;20558;-74
2022/05/11 06:49:57;;;;;;;14.23;5.40;;;15.50;99.90;;;;;;5073396;28;20434;-74
2022/05/11 06:52:22;;;;;;;11.85;5.22;;;15.50;99.90;;;;;;5069154;28;20085;-74
2022/05/11 07:00:18;;;;;;;11.55;4.40;;;15.60;99.90;;;;;;5064790;28;20052;-73
2022/05/11 07:02:43;;;;;;;19.15;5.00;;;15.60;99.90;;;;;;5076271;28;20052;-75
2022/05/11 07:05:10;;;;;;;14.18;5.07;;;15.60;99.90;;;;;;5067634;28;20052;-73
2022/05/11 07:07:39;;;;;;;15.23;5.22;;;15.60;99.90;;;;;;5067319;28;20037;-74
2022/05/11 07:10:06;;;;;;;12.15;5.03;;;15.70;99.90;;;;;;5067721;28;20067;-74
2022/05/11 07:12:35;;;;;;;16.02;5.10;;;15.70;99.90;;;;;;5052485;28;20044;-74
2022/05/11 07:15:02;;;;;;;18.30;5.28;;;15.70;99.90;;;;;;5054269;28;20044;-74
2022/05/11 07:17:31;;;;;;;13.77;5.35;;;15.70;99.90;;;;;;5077569;28;20094;-76
2022/05/11 07:20:18;;;;;;;15.85;5.55;;;15.80;99.90;;;;;;5046899;28;20033;-74
2022/05/11 07:22:44;;;;;;;14.27;5.00;;;15.80;99.90;;;;;;5065621;28;20055;-75
2022/05/11 07:25:12;;;;;;;14.45;4.70;;;15.90;99.90;;;;;;5069961;28;20044;-75
2022/05/11 07:27:39;;;;;;;14.90;5.38;;;15.90;99.90;;;;;;5064922;28;20362;-73
2022/05/11 07:30:07;;;;;;;15.55;5.15;;;15.90;99.90;;;;;;5072235;28;20046;-74
2022/05/11 07:32:32;;;;;;;14.45;4.68;;;15.90;99.90;;;;;;5053091;28;20048;-73
2022/05/11 07:34:58;;;;;;;14.93;4.90;;;16.00;99.90;;;;;;5056046;28;20088;-75
2022/05/11 07:37:23;;;;;;;19.13;4.85;;;16.00;99.90;;;;;;5080472;28;20411;-74
2022/05/11 07:39:49;;;;;;;12.40;4.97;;;16.00;99.90;;;;;;5055378;28;20055;-75
2022/05/11 07:42:16;;;;;;;20.67;4.88;;;16.10;99.90;;;;;;5048668;28;20055;-74
2022/05/11 07:44:42;;;;;;;11.30;5.03;;;16.10;99.90;;;;;;5065410;28;20041;-75
2022/05/11 07:47:10;;;;;;;19.10;5.47;;;16.20;99.90;;;;;;5070564;28;20051;-75
2022/05/11 07:49:37;;;;;;;16.23;4.60;;;16.20;99.90;;;;;;5065273;28;20387;-74
2022/05/11 07:52:03;;;;;;;12.60;4.40;;;16.30;99.90;;;;;;5049759;28;20044;-75
2022/05/11 07:54:30;;;;;;;14.85;4.30;;;16.40;99.90;;;;;;5072529;28;20037;-74
2022/05/11 07:59:52;;;;;;;20.33;4.07;;;16.60;99.90;;;;;;5065740;28;20047;-74
2022/05/11 08:02:19;;;;;;;12.38;3.72;;;16.60;99.90;;;;;;5071173;28;20159;-74
2022/05/11 08:04:45;;;;;;;15.38;4.70;;;16.70;99.90;;;;;;5051554;28;20040;-75
2022/05/11 08:07:15;;;;;;;12.88;3.40;;;16.80;99.90;;;;;;5074290;28;20645;-74
2022/05/11 08:09:41;;;;;;;12.60;3.55;;;16.80;99.90;;;;;;5089204;28;20108;-74
2022/05/11 08:12:07;;;;;;;12.98;3.00;;;17.00;99.90;;;;;;5051614;28;20040;-74
2022/05/11 08:14:36;;;;;;;12.00;3.88;;;16.90;99.90;;;;;;5048145;28;20111;-74
2022/05/11 08:17:01;;;;;;;12.82;3.90;;;17.00;99.90;;;;;;5065658;28;20041;-73
2022/05/11 08:19:28;;;;;;;10.93;3.78;;;17.00;99.90;;;;;;5041761;28;20059;-73
2022/05/11 08:21:55;;;;;;;12.68;3.60;;;17.10;99.90;;;;;;5048752;28;20063;-74
2022/05/11 08:24:22;;;;;;;10.40;3.85;;;17.10;99.90;;;;;;5051821;28;20553;-72
2022/05/11 08:26:51;;;;;;;16.08;3.50;;;17.10;99.90;;;;;;5051074;28;20068;-73
2022/05/11 08:34:49;;;;;;;9.77;2.95;;;17.30;99.90;;;;;;5068834;28;20055;-75
2022/05/11 08:37:16;;;;;;;15.05;3.92;;;17.40;99.90;;;;;;5084492;28;20451;-74
2022/05/11 08:39:42;;;;;;;13.75;3.65;;;17.50;99.90;;;;;;5068497;28;20044;-73
2022/05/11 08:42:08;;;;;;;12.45;2.92;;;17.60;99.90;;;;;;5088823;28;20061;-73
2022/05/11 08:44:37;;;;;;;18.30;3.85;;;17.50;99.90;;;;;;5083605;28;20782;-73
2022/05/11 08:47:15;;;;;;;17.23;5.00;;;17.50;99.90;;;;;;5088579;28;20222;-73
2022/05/11 08:50:09;;;;;;;18.15;3.38;;;17.50;99.90;;;;;;5045997;28;20052;-73
2022/05/11 08:53:06;;;;;;;18.83;4.50;;;17.50;99.90;;;;;;5074398;28;20151;-73
2022/05/11 08:55:49;;;;;;;14.75;3.42;;;17.50;99.90;;;;;;5059156;28;20446;-73
2022/05/11 08:58:28;;;;;;;17.25;3.47;;;17.50;99.90;;;;;;5046255;28;20043;-73
2022/05/11 09:00:56;;;;;;;14.45;4.07;;;17.50;99.90;;;;;;5068761;28;20051;-74
2022/05/11 09:03:32;;;;;;;15.27;3.45;;;17.50;99.90;;;;;;5070024;28;20036;-74
2022/05/11 09:06:05;;;;;;;14.43;2.83;;;17.50;99.90;;;;;;5069563;28;20158;-73
2022/05/11 09:08:39;;;;;;;13.20;3.20;;;17.50;99.90;;;;;;5066347;28;20079;-73
2022/05/11 09:11:06;;;;;;;15.15;3.17;;;17.60;99.90;;;;;;5076393;28;20720;-73
2022/05/11 09:13:37;;;;;;;11.20;3.28;;;17.60;99.90;;;;;;5070828;28;20359;-73
2022/05/11 09:16:05;;;;;;;12.53;2.90;;;17.60;99.90;;;;;;5050497;28;20093;-74
2022/05/11 09:18:31;;;;;;;11.68;3.72;;;17.60;99.90;;;;;;5057220;28;20096;-75
2022/05/11 09:21:12;;;;;;;14.70;3.78;;;17.60;99.90;;;;;;5088057;28;20384;-75
2022/05/11 09:23:41;;;;;;;13.55;2.92;;;17.60;99.90;;;;;;5049735;28;20044;-75
2022/05/11 09:26:10;;;;;;;11.18;3.10;;;17.50;99.90;;;;;;5049421;28;20189;-74
2022/05/11 09:28:42;;;;;;;11.43;2.97;;;17.50;99.90;;;;;;5060987;28;20052;-74
2022/05/11 09:31:13;;;;;;;16.63;2.97;;;17.50;99.90;;;;;;5039755;28;20036;-74
2022/05/11 09:33:41;;;;;;;8.95;2.53;;;17.50;99.90;;;;;;5064988;28;20107;-74
2022/05/11 09:36:09;;;;;;;15.25;2.40;;;17.60;99.90;;;;;;5063710;28;20040;-75
2022/05/11 09:38:44;;;;;;;13.32;2.47;;;17.60;99.90;;;;;;5040007;28;20663;-75
2022/05/11 09:41:22;;;;;;;12.38;2.88;;;17.70;99.90;;;;;;5049712;28;20069;-74
2022/05/11 09:43:50;;;;;;;14.50;2.78;;;17.80;99.90;;;;;;5061641;28;20035;-75
2022/05/11 09:46:21;;;;;;;10.40;2.28;;;17.80;99.90;;;;;;5084233;28;20036;-74
2022/05/11 09:48:55;;;;;;;17.83;3.35;;;17.80;99.90;;;;;;5071230;28;20395;-74
2022/05/11 09:51:35;;;;;;;14.00;3.42;;;17.90;99.90;;;;;;5070488;28;20374;-74
2022/05/11 09:54:13;;;;;;;15.27;2.15;;;17.90;99.90;;;;;;5062364;28;20048;-73
2022/05/11 09:56:46;;;;;;;13.23;2.70;;;17.90;99.90;;;;;;5050488;28;20072;-74
2022/05/11 09:59:32;;;;;;;10.75;2.67;;;18.00;99.90;;;;;;5073188;28;20349;-74
2022/05/11 10:02:31;;;;;;;14.20;2.63;;;18.20;99.90;;;;;;5064818;28;20093;-74
2022/05/11 10:05:14;;;;;;;19.52;2.85;;;18.30;99.90;;;;;;5055706;28;20035;-75
2022/05/11 10:08:04;;;;;;;13.63;2.53;;;18.30;99.80;;;;;;5076856;28;20040;-74
2022/05/11 10:10:44;;;;;;;16.40;2.60;;;18.20;99.80;;;;;;5071118;28;20494;-74
2022/05/11 10:13:24;;;;;;;13.33;3.03;;;18.20;99.90;;;;;;5087385;28;20051;-74
2022/05/11 10:22:08;;;;;;;9.15;2.28;;;18.50;99.70;;;;;;5086929;28;20049;-75
2022/05/11 10:24:48;;;;;;;11.77;2.25;;;18.50;99.20;;;;;;5088786;28;20058;-74
2022/05/11 10:27:23;;;;;;;9.82;2.25;;;18.60;99.30;;;;;;5085600;28;20539;-74
2022/05/11 10:30:06;;;;;;;13.25;3.03;;;18.70;98.70;;;;;;5082189;28;20491;-74
2022/05/11 10:32:52;;;;;;;10.20;2.30;;;18.70;98.10;;;;;;5065148;28;20041;-74
2022/05/11 10:35:27;;;;;;;14.18;2.50;;;18.80;98.00;;;;;;5048848;28;20112;-75
2022/05/11 10:38:02;;;;;;;16.75;3.50;;;18.90;97.90;;;;;;5050753;28;20056;-75
2022/05/11 10:40:40;;;;;;;11.50;3.05;;;19.00;98.20;;;;;;5068118;28;20052;-75
2022/05/11 10:43:15;;;;;;;19.38;4.07;;;18.90;97.90;;;;;;5067781;28;20086;-75
2022/05/11 10:46:17;;;;;;;10.70;2.33;;;19.10;98.00;;;;;;5050429;28;20041;-75
2022/05/11 10:49:08;;;;;;;10.30;2.53;;;19.20;98.10;;;;;;5044590;28;20048;-75
2022/05/11 10:52:04;;;;;;;11.90;2.50;;;19.20;97.80;;;;;;5040702;28;20360;-75
2022/05/11 10:54:57;;;;;;;19.63;3.53;;;19.30;97.50;;;;;;5050505;28;20055;-74
2022/05/11 10:57:23;;;;;;;9.65;2.33;;;19.30;96.90;;;;;;5066783;28;20387;-76
2022/05/11 11:00:03;;;;;;;11.93;2.58;;;19.20;96.50;;;;;;5050350;28;20048;-75
2022/05/11 11:02:51;;;;;;;11.82;2.35;;;19.30;96.50;;;;;;5048706;28;20046;-75
2022/05/11 11:05:43;;;;;;;14.65;3.03;;;19.40;95.90;;;;;;5067619;28;20350;-75
2022/05/11 11:08:42;;;;;;;10.82;2.45;;;19.20;95.30;;;;;;5047340;28;20495;-74
2022/05/11 11:11:26;;;;;;;7.95;2.10;;;19.20;95.40;;;;;;5069046;28;20045;-76
2022/05/11 11:14:06;;;;;;;11.07;2.42;;;19.20;95.30;;;;;;5070862;28;20471;-74
2022/05/11 11:16:35;;;;;;;11.93;3.17;;;19.20;94.70;;;;;;5070901;28;20045;-73
2022/05/11 11:19:03;;;;;;;10.85;2.28;;;19.30;94.50;;;;;;5053376;28;20560;-74
2022/05/11 11:21:29;;;;;;;9.77;2.55;;;19.30;94.20;;;;;;5071853;28;20040;-74
2022/05/11 11:24:22;;;;;;;13.38;2.95;;;19.30;94.40;;;;;;5070860;28;20484;-76
2022/05/11 11:27:01;;;;;;;12.05;3.10;;;19.40;94.30;;;;;;5070775;28;20052;-75
2022/05/11 11:29:30;;;;;;;13.43;3.13;;;19.40;94.60;;;;;;5058054;28;20059;-74
2022/05/11 11:32:01;;;;;;;14.93;3.40;;;19.40;94.50;;;;;;5049843;28;20047;-75
2022/05/11 11:34:32;;;;;;;11.15;3.22;;;19.50;94.70;;;;;;5045371;28;20048;-75
2022/05/11 11:37:19;;;;;;;16.58;3.47;;;19.60;94.90;;;;;;5066581;28;20131;-75
2022/05/11 11:39:52;;;;;;;13.95;3.42;;;19.60;94.80;;;;;;5065622;28;20448;-76
2022/05/11 11:42:41;;;;;;;15.57;3.15;;;19.80;94.60;;;;;;5047510;28;20040;-75
2022/05/11 11:45:32;;;;;;;14.85;2.85;;;19.80;94.10;;;;;;5052951;28;20352;-75
2022/05/11 11:48:04;;;;;;;9.10;2.63;;;19.70;93.70;;;;;;5070406;28;20040;-75
2022/05/11 11:50:53;;;;;;;13.70;2.63;;;19.60;93.70;;;;;;5061583;28;20400;-75
2022/05/11 11:53:56;;;;;;;9.65;2.65;;;19.50;93.50;;;;;;5070151;28;20156;-74
2022/05/11 11:56:24;;;;;;;12.52;2.80;;;19.40;93.40;;;;;;5042819;28;20115;-74
2022/05/11 11:59:10;;;;;;;8.95;2.10;;;19.40;93.80;;;;;;5051422;28;20102;-74
2022/05/11 12:01:49;;;;;;;8.73;2.33;;;19.40;93.80;;;;;;5053128;28;20187;-74
2022/05/11 12:04:27;;;;;;;13.13;2.65;;;19.40;93.50;;;;;;5071355;28;20380;-74
2022/05/11 12:15:12;;;;;;;13.40;1.98;;;19.40;92.30;;;;;;5033166;28;20052;-76
2022/05/11 12:17:40;;;;;;;14.77;2.33;;;19.50;92.50;;;;;;5060986;28;20141;-74
2022/05/11 12:20:14;;;;;;;7.28;1.75;;;19.70;91.70;;;;;;5052500;28;20058;-74
2022/05/11 12:22:44;;;;;;;9.68;1.75;;;19.80;90.80;;;;;;5052005;28;20461;-75
2022/05/11 12:25:26;;;;;;;10.50;2.13;;;19.90;90.60;;;;;;5071050;28;20385;-74
2022/05/11 12:27:54;;;;;;;9.70;1.90;;;20.10;90.40;;;;;;5068469;28;20051;-74
2022/05/11 12:30:32;;;;;;;4.22;1.23;;;20.20;88.70;;;;;;5052471;28;20055;-75
2022/05/11 12:33:01;;;;;;;6.45;1.25;;;20.30;87.20;;;;;;5051990;28;20365;-74
2022/05/11 12:35:39;;;;;;;6.00;1.55;;;20.30;85.90;;;;;;5069869;28;20096;-75
2022/05/11 12:38:10;;;;;;;8.35;2.00;;;20.30;85.80;;;;;;5078568;28;20501;-74
2022/05/11 12:40:46;;;;;;;9.15;1.35;;;20.70;86.10;;;;;;5059599;28;20346;-75
2022/05/11 12:43:24;;;;;;;8.50;1.30;;;20.80;83.60;;;;;;5062817;28;20071;-76
2022/05/11 12:45:52;;;;;;;7.53;1.50;;;21.00;83.10;;;;;;5070984;28;20135;-74
2022/05/11 12:48:21;;;;;;;12.45;1.83;;;21.10;82.10;;;;;;5051010;28;20051;-75
2022/05/11 12:50:59;;;;;;;6.30;1.50;;;21.20;80.30;;;;;;5070761;28;20044;-76
2022/05/11 12:53:28;;;;;;;9.05;1.50;;;21.30;79.40;;;;;;5069939;28;20049;-76
2022/05/11 12:56:14;;;;;;;8.48;1.65;;;21.30;78.30;;;;;;5069308;28;20527;-75
2022/05/11 12:59:17;;;;;;;9.75;1.55;;;21.40;77.00;;;;;;5068578;28;20088;-75
2022/05/11 13:01:43;;;;;;;9.25;1.17;;;21.40;76.70;;;;;;5069434;28;20404;-75
2022/05/11 13:04:18;;;;;;;19.17;1.42;;;21.30;76.10;;;;;;5069549;28;20067;-75
2022/05/11 13:06:51;;;;;;;4.30;1.23;;;21.30;73.50;;;;;;5048961;28;20393;-75
2022/05/11 13:09:33;;;;;;;3.85;1.00;;;21.30;72.20;;;;;;5049129;28;20056;-75
2022/05/11 13:11:59;;;;;;;11.13;1.30;;;21.20;71.00;;;;;;5068742;28;20102;-74
2022/05/11 13:14:38;;;;;;;8.10;1.50;;;21.30;70.10;;;;;;5051406;28;20496;-75
2022/05/11 13:17:08;;;;;;;14.02;1.35;;;21.30;70.00;;;;;;5050588;28;20045;-74
2022/05/11 13:19:36;;;;;;;11.15;1.75;;;21.30;69.40;;;;;;5069695;28;20055;-76
2022/05/11 13:22:12;;;;;;;8.27;1.60;;;21.30;70.00;;;;;;5051301;28;20055;-75
2022/05/11 13:24:50;;;;;;;12.63;1.30;;;21.30;68.70;;;;;;5050755;28;20094;-74
2022/05/11 13:27:44;;;;;;;7.32;1.30;;;21.40;68.50;;;;;;5049957;28;20535;-76
2022/05/11 13:30:44;;;;;;;9.43;1.88;;;21.40;68.90;;;;;;5068809;28;20105;-75
2022/05/11 13:33:35;;;;;;;5.97;1.52;;;21.50;68.50;;;;;;5050246;28;20052;-75
2022/05/11 13:36:12;;;;;;;7.13;1.33;;;21.50;68.90;;;;;;5051174;28;20045;-75